sensor_id;sensor_type;location;lat;lon;timestamp;P1;durP1;ratioP1;P2;durP2;ratioP2
9106;SDS011;4589;48.690;8.952;2023-08-08T00:00:10;7.73;;;2.53;;
9106;SDS011;4589;48.690;8.952;2023-08-08T00:02:36;4.90;;;2.77;;
9106;SDS011;4589;48.690;8.952;2023-08-08T00:05:02;3.50;;;2.30;;
9106;SDS011;4589;48.690;8.952;2023-08-08T00:07:28;2.83;;;2.40;;
9106;SDS011;4589;48.690;8.952;2023-08-08T00:09:55;4.93;;;2.60;;
9106;SDS011;4589;48.690;8.952;2023-08-08T00:12:21;3.60;;;2.20;;
9106;SDS011;4589;48.690;8.952;2023-08-08T00:14:47;2.77;;;2.30;;
9106;SDS011;4589;48.690;8.952;2023-08-08T00:17:13;2.83;;;2.30;;
9106;SDS011;4589;48.690;8.952;2023-08-08T00:19:39;6.57;;;2.20;;
9106;SDS011;4589;48.690;8.952;2023-08-08T00:22:05;2.30;;;2.10;;
9106;SDS011;4589;48.690;8.952;2023-08-08T00:24:31;4.27;;;2.60;;
9106;SDS011;4589;48.690;8.952;2023-08-08T00:26:57;2.83;;;2.40;;
9106;SDS011;4589;48.690;8.952;2023-08-08T00:29:23;3.07;;;2.27;;
9106;SDS011;4589;48.690;8.952;2023-08-08T00:31:49;2.47;;;2.17;;
9106;SDS011;4589;48.690;8.952;2023-08-08T00:34:14;3.97;;;2.30;;
9106;SDS011;4589;48.690;8.952;2023-08-08T00:36:41;2.90;;;2.10;;
9106;SDS011;4589;48.690;8.952;2023-08-08T00:39:07;1.90;;;1.80;;
9106;SDS011;4589;48.690;8.952;2023-08-08T00:41:33;5.93;;;2.30;;
9106;SDS011;4589;48.690;8.952;2023-08-08T00:43:59;2.77;;;2.30;;
9106;SDS011;4589;48.690;8.952;2023-08-08T00:46:25;3.60;;;2.20;;
9106;SDS011;4589;48.690;8.952;2023-08-08T00:48:51;2.33;;;2.13;;
9106;SDS011;4589;48.690;8.952;2023-08-08T00:51:18;3.10;;;2.27;;
9106;SDS011;4589;48.690;8.952;2023-08-08T00:53:44;2.47;;;2.17;;
9106;SDS011;4589;48.690;8.952;2023-08-08T00:56:11;4.00;;;2.10;;
9106;SDS011;4589;48.690;8.952;2023-08-08T00:58:39;2.17;;;2.00;;
9106;SDS011;4589;48.690;8.952;2023-08-08T01:01:05;2.50;;;2.30;;
9106;SDS011;4589;48.690;8.952;2023-08-08T01:03:31;2.20;;;2.00;;
9106;SDS011;4589;48.690;8.952;2023-08-08T01:06:43;3.47;;;2.80;;
9106;SDS011;4589;48.690;8.952;2023-08-08T01:08:51;3.53;;;2.53;;
9106;SDS011;4589;48.690;8.952;2023-08-08T01:11:23;4.50;;;2.33;;
9106;SDS011;4589;48.690;8.952;2023-08-08T01:13:50;7.00;;;2.17;;
9106;SDS011;4589;48.690;8.952;2023-08-08T01:16:19;2.33;;;1.97;;
9106;SDS011;4589;48.690;8.952;2023-08-08T01:18:46;2.83;;;2.27;;
9106;SDS011;4589;48.690;8.952;2023-08-08T01:21:14;3.00;;;2.70;;
9106;SDS011;4589;48.690;8.952;2023-08-08T01:23:42;2.60;;;2.40;;
9106;SDS011;4589;48.690;8.952;2023-08-08T01:26:13;4.23;;;2.30;;
9106;SDS011;4589;48.690;8.952;2023-08-08T01:28:39;3.27;;;2.93;;
9106;SDS011;4589;48.690;8.952;2023-08-08T01:31:07;4.90;;;2.60;;
9106;SDS011;4589;48.690;8.952;2023-08-08T01:33:33;2.50;;;2.30;;
9106;SDS011;4589;48.690;8.952;2023-08-08T01:36:00;3.10;;;2.67;;
9106;SDS011;4589;48.690;8.952;2023-08-08T01:38:32;2.90;;;2.60;;
9106;SDS011;4589;48.690;8.952;2023-08-08T01:41:01;3.77;;;2.30;;
9106;SDS011;4589;48.690;8.952;2023-08-08T01:43:29;4.00;;;2.60;;
9106;SDS011;4589;48.690;8.952;2023-08-08T01:45:57;2.50;;;2.30;;
9106;SDS011;4589;48.690;8.952;2023-08-08T01:48:23;2.70;;;2.33;;
9106;SDS011;4589;48.690;8.952;2023-08-08T01:50:49;2.73;;;2.23;;
9106;SDS011;4589;48.690;8.952;2023-08-08T01:53:14;3.23;;;2.67;;
9106;SDS011;4589;48.690;8.952;2023-08-08T01:55:40;4.23;;;2.43;;
9106;SDS011;4589;48.690;8.952;2023-08-08T01:58:06;3.50;;;2.70;;
9106;SDS011;4589;48.690;8.952;2023-08-08T02:00:32;2.63;;;2.40;;
9106;SDS011;4589;48.690;8.952;2023-08-08T02:02:58;2.87;;;2.40;;
9106;SDS011;4589;48.690;8.952;2023-08-08T02:05:24;2.97;;;2.67;;
9106;SDS011;4589;48.690;8.952;2023-08-08T02:07:50;2.57;;;2.37;;
9106;SDS011;4589;48.690;8.952;2023-08-08T02:10:16;4.23;;;2.20;;
9106;SDS011;4589;48.690;8.952;2023-08-08T02:12:42;13.10;;;2.67;;
9106;SDS011;4589;48.690;8.952;2023-08-08T02:15:08;4.83;;;2.67;;
9106;SDS011;4589;48.690;8.952;2023-08-08T02:17:34;2.10;;;1.90;;
9106;SDS011;4589;48.690;8.952;2023-08-08T02:20:00;2.37;;;2.17;;
9106;SDS011;4589;48.690;8.952;2023-08-08T02:22:26;3.20;;;2.60;;
9106;SDS011;4589;48.690;8.952;2023-08-08T02:24:52;4.10;;;2.50;;
9106;SDS011;4589;48.690;8.952;2023-08-08T02:27:18;2.23;;;2.03;;
9106;SDS011;4589;48.690;8.952;2023-08-08T02:29:43;6.17;;;2.77;;
9106;SDS011;4589;48.690;8.952;2023-08-08T02:32:09;3.33;;;2.43;;
9106;SDS011;4589;48.690;8.952;2023-08-08T02:34:35;2.30;;;2.10;;
9106;SDS011;4589;48.690;8.952;2023-08-08T02:37:01;2.67;;;2.20;;
9106;SDS011;4589;48.690;8.952;2023-08-08T02:39:27;5.60;;;2.37;;
9106;SDS011;4589;48.690;8.952;2023-08-08T02:41:53;4.43;;;2.63;;
9106;SDS011;4589;48.690;8.952;2023-08-08T02:44:19;3.20;;;2.70;;
9106;SDS011;4589;48.690;8.952;2023-08-08T02:46:47;2.80;;;2.50;;
9106;SDS011;4589;48.690;8.952;2023-08-08T02:49:13;3.33;;;2.40;;
9106;SDS011;4589;48.690;8.952;2023-08-08T02:51:39;3.63;;;2.30;;
9106;SDS011;4589;48.690;8.952;2023-08-08T02:54:06;2.70;;;2.27;;
9106;SDS011;4589;48.690;8.952;2023-08-08T02:56:31;3.60;;;2.67;;
9106;SDS011;4589;48.690;8.952;2023-08-08T02:58:57;2.80;;;2.60;;
9106;SDS011;4589;48.690;8.952;2023-08-08T03:01:23;4.30;;;3.03;;
9106;SDS011;4589;48.690;8.952;2023-08-08T03:03:49;3.30;;;3.00;;
9106;SDS011;4589;48.690;8.952;2023-08-08T03:06:15;2.50;;;2.30;;
9106;SDS011;4589;48.690;8.952;2023-08-08T03:08:41;3.20;;;2.90;;
9106;SDS011;4589;48.690;8.952;2023-08-08T03:11:07;2.30;;;2.10;;
9106;SDS011;4589;48.690;8.952;2023-08-08T03:13:33;2.43;;;2.23;;
9106;SDS011;4589;48.690;8.952;2023-08-08T03:15:59;3.70;;;2.53;;
9106;SDS011;4589;48.690;8.952;2023-08-08T03:18:25;5.53;;;2.67;;
9106;SDS011;4589;48.690;8.952;2023-08-08T03:20:51;2.93;;;2.70;;
9106;SDS011;4589;48.690;8.952;2023-08-08T03:23:17;2.60;;;2.40;;
9106;SDS011;4589;48.690;8.952;2023-08-08T03:25:43;2.90;;;2.60;;
9106;SDS011;4589;48.690;8.952;2023-08-08T03:28:09;3.60;;;2.50;;
9106;SDS011;4589;48.690;8.952;2023-08-08T03:30:36;3.23;;;2.70;;
9106;SDS011;4589;48.690;8.952;2023-08-08T03:33:02;3.67;;;2.60;;
9106;SDS011;4589;48.690;8.952;2023-08-08T03:35:28;2.90;;;2.10;;
9106;SDS011;4589;48.690;8.952;2023-08-08T03:37:55;3.80;;;2.10;;
9106;SDS011;4589;48.690;8.952;2023-08-08T03:40:21;3.03;;;2.30;;
9106;SDS011;4589;48.690;8.952;2023-08-08T03:42:47;4.33;;;2.80;;
9106;SDS011;4589;48.690;8.952;2023-08-08T03:45:13;2.47;;;2.27;;
9106;SDS011;4589;48.690;8.952;2023-08-08T03:47:39;2.50;;;2.30;;
9106;SDS011;4589;48.690;8.952;2023-08-08T03:50:05;2.37;;;2.17;;
9106;SDS011;4589;48.690;8.952;2023-08-08T03:52:31;3.50;;;2.60;;
9106;SDS011;4589;48.690;8.952;2023-08-08T03:55:00;8.13;;;2.67;;
9106;SDS011;4589;48.690;8.952;2023-08-08T03:57:26;2.80;;;2.50;;
9106;SDS011;4589;48.690;8.952;2023-08-08T03:59:52;4.60;;;3.00;;
9106;SDS011;4589;48.690;8.952;2023-08-08T04:02:18;4.40;;;3.13;;
9106;SDS011;4589;48.690;8.952;2023-08-08T04:04:44;3.07;;;2.67;;
9106;SDS011;4589;48.690;8.952;2023-08-08T04:07:10;3.23;;;2.93;;
9106;SDS011;4589;48.690;8.952;2023-08-08T04:09:35;3.30;;;3.00;;
9106;SDS011;4589;48.690;8.952;2023-08-08T04:12:01;3.27;;;2.87;;
9106;SDS011;4589;48.690;8.952;2023-08-08T04:14:27;2.53;;;2.10;;
9106;SDS011;4589;48.690;8.952;2023-08-08T04:16:53;2.50;;;2.30;;
9106;SDS011;4589;48.690;8.952;2023-08-08T04:19:19;3.57;;;2.50;;
9106;SDS011;4589;48.690;8.952;2023-08-08T04:21:45;2.47;;;2.27;;
9106;SDS011;4589;48.690;8.952;2023-08-08T04:24:11;2.57;;;2.37;;
9106;SDS011;4589;48.690;8.952;2023-08-08T04:26:37;3.00;;;2.70;;
9106;SDS011;4589;48.690;8.952;2023-08-08T04:29:05;3.30;;;2.80;;
9106;SDS011;4589;48.690;8.952;2023-08-08T04:31:31;3.10;;;2.37;;
9106;SDS011;4589;48.690;8.952;2023-08-08T04:33:57;4.13;;;3.47;;
9106;SDS011;4589;48.690;8.952;2023-08-08T04:36:29;3.47;;;2.80;;
9106;SDS011;4589;48.690;8.952;2023-08-08T04:38:54;4.60;;;2.50;;
9106;SDS011;4589;48.690;8.952;2023-08-08T04:41:20;6.17;;;3.10;;
9106;SDS011;4589;48.690;8.952;2023-08-08T04:43:46;3.60;;;2.70;;
9106;SDS011;4589;48.690;8.952;2023-08-08T04:46:12;2.67;;;2.40;;
9106;SDS011;4589;48.690;8.952;2023-08-08T04:48:38;4.47;;;2.80;;
9106;SDS011;4589;48.690;8.952;2023-08-08T04:51:05;2.57;;;2.37;;
9106;SDS011;4589;48.690;8.952;2023-08-08T04:53:30;2.90;;;2.20;;
9106;SDS011;4589;48.690;8.952;2023-08-08T04:55:57;3.80;;;2.50;;
9106;SDS011;4589;48.690;8.952;2023-08-08T04:58:23;4.70;;;3.10;;
9106;SDS011;4589;48.690;8.952;2023-08-08T05:00:49;7.10;;;3.67;;
9106;SDS011;4589;48.690;8.952;2023-08-08T05:03:19;5.60;;;2.53;;
9106;SDS011;4589;48.690;8.952;2023-08-08T05:05:45;3.23;;;2.43;;
9106;SDS011;4589;48.690;8.952;2023-08-08T05:08:15;10.63;;;2.90;;
9106;SDS011;4589;48.690;8.952;2023-08-08T05:10:41;9.63;;;3.20;;
9106;SDS011;4589;48.690;8.952;2023-08-08T05:13:07;5.33;;;2.57;;
9106;SDS011;4589;48.690;8.952;2023-08-08T05:15:34;8.57;;;3.00;;
9106;SDS011;4589;48.690;8.952;2023-08-08T05:18:00;5.33;;;3.10;;
9106;SDS011;4589;48.690;8.952;2023-08-08T05:20:26;9.13;;;4.37;;
9106;SDS011;4589;48.690;8.952;2023-08-08T05:22:52;11.50;;;2.83;;
9106;SDS011;4589;48.690;8.952;2023-08-08T05:25:18;10.23;;;3.27;;
9106;SDS011;4589;48.690;8.952;2023-08-08T05:27:43;5.70;;;2.90;;
9106;SDS011;4589;48.690;8.952;2023-08-08T05:30:10;9.20;;;2.83;;
9106;SDS011;4589;48.690;8.952;2023-08-08T05:32:35;7.60;;;2.70;;
9106;SDS011;4589;48.690;8.952;2023-08-08T05:35:01;3.63;;;2.50;;
9106;SDS011;4589;48.690;8.952;2023-08-08T05:37:29;7.53;;;2.77;;
9106;SDS011;4589;48.690;8.952;2023-08-08T05:39:55;3.20;;;1.90;;
9106;SDS011;4589;48.690;8.952;2023-08-08T05:42:21;3.47;;;2.50;;
9106;SDS011;4589;48.690;8.952;2023-08-08T05:44:46;2.80;;;2.30;;
9106;SDS011;4589;48.690;8.952;2023-08-08T05:47:13;3.60;;;2.13;;
9106;SDS011;4589;48.690;8.952;2023-08-08T05:49:39;2.67;;;2.10;;
9106;SDS011;4589;48.690;8.952;2023-08-08T05:52:07;3.70;;;2.40;;
9106;SDS011;4589;48.690;8.952;2023-08-08T05:54:33;1.93;;;1.57;;
9106;SDS011;4589;48.690;8.952;2023-08-08T05:56:59;3.67;;;2.13;;
9106;SDS011;4589;48.690;8.952;2023-08-08T05:59:25;2.30;;;2.10;;
9106;SDS011;4589;48.690;8.952;2023-08-08T06:01:50;3.70;;;2.33;;
9106;SDS011;4589;48.690;8.952;2023-08-08T06:04:16;4.00;;;2.00;;
9106;SDS011;4589;48.690;8.952;2023-08-08T06:06:42;3.33;;;2.17;;
9106;SDS011;4589;48.690;8.952;2023-08-08T06:09:08;2.53;;;1.87;;
9106;SDS011;4589;48.690;8.952;2023-08-08T06:11:34;2.80;;;1.93;;
9106;SDS011;4589;48.690;8.952;2023-08-08T06:14:00;3.63;;;1.70;;
9106;SDS011;4589;48.690;8.952;2023-08-08T06:16:26;6.73;;;2.10;;
9106;SDS011;4589;48.690;8.952;2023-08-08T06:18:52;5.20;;;1.83;;
9106;SDS011;4589;48.690;8.952;2023-08-08T06:21:18;3.10;;;1.83;;
9106;SDS011;4589;48.690;8.952;2023-08-08T06:23:43;3.30;;;1.70;;
9106;SDS011;4589;48.690;8.952;2023-08-08T06:26:09;5.33;;;1.90;;
9106;SDS011;4589;48.690;8.952;2023-08-08T06:28:35;3.77;;;1.90;;
9106;SDS011;4589;48.690;8.952;2023-08-08T06:31:00;4.27;;;1.73;;
9106;SDS011;4589;48.690;8.952;2023-08-08T06:33:27;3.10;;;1.70;;
9106;SDS011;4589;48.690;8.952;2023-08-08T06:35:53;2.17;;;1.57;;
9106;SDS011;4589;48.690;8.952;2023-08-08T06:38:20;2.33;;;1.50;;
9106;SDS011;4589;48.690;8.952;2023-08-08T06:40:46;1.80;;;1.70;;
9106;SDS011;4589;48.690;8.952;2023-08-08T06:43:12;1.83;;;1.63;;
9106;SDS011;4589;48.690;8.952;2023-08-08T06:45:38;1.43;;;1.33;;
9106;SDS011;4589;48.690;8.952;2023-08-08T06:48:04;2.30;;;1.80;;
9106;SDS011;4589;48.690;8.952;2023-08-08T06:50:30;1.47;;;1.37;;
9106;SDS011;4589;48.690;8.952;2023-08-08T06:52:56;1.43;;;1.33;;
9106;SDS011;4589;48.690;8.952;2023-08-08T06:55:22;2.50;;;1.50;;
9106;SDS011;4589;48.690;8.952;2023-08-08T06:57:47;4.10;;;1.80;;
9106;SDS011;4589;48.690;8.952;2023-08-08T07:00:13;3.43;;;1.40;;
9106;SDS011;4589;48.690;8.952;2023-08-08T07:02:39;3.33;;;1.40;;
9106;SDS011;4589;48.690;8.952;2023-08-08T07:05:06;1.90;;;1.50;;
9106;SDS011;4589;48.690;8.952;2023-08-08T07:07:32;2.10;;;1.60;;
9106;SDS011;4589;48.690;8.952;2023-08-08T07:09:58;2.13;;;1.70;;
9106;SDS011;4589;48.690;8.952;2023-08-08T07:12:24;2.90;;;1.90;;
9106;SDS011;4589;48.690;8.952;2023-08-08T07:14:50;3.40;;;1.90;;
9106;SDS011;4589;48.690;8.952;2023-08-08T07:17:16;2.53;;;1.90;;
9106;SDS011;4589;48.690;8.952;2023-08-08T07:19:41;2.80;;;1.70;;
9106;SDS011;4589;48.690;8.952;2023-08-08T07:22:07;2.80;;;1.40;;
9106;SDS011;4589;48.690;8.952;2023-08-08T07:24:33;3.37;;;2.10;;
9106;SDS011;4589;48.690;8.952;2023-08-08T07:26:59;1.70;;;1.50;;
9106;SDS011;4589;48.690;8.952;2023-08-08T07:29:25;2.30;;;1.67;;
9106;SDS011;4589;48.690;8.952;2023-08-08T07:31:51;3.83;;;1.83;;
9106;SDS011;4589;48.690;8.952;2023-08-08T07:34:18;2.70;;;1.57;;
9106;SDS011;4589;48.690;8.952;2023-08-08T07:36:43;1.67;;;1.50;;
9106;SDS011;4589;48.690;8.952;2023-08-08T07:39:09;1.80;;;1.53;;
9106;SDS011;4589;48.690;8.952;2023-08-08T07:41:35;2.10;;;1.60;;
9106;SDS011;4589;48.690;8.952;2023-08-08T07:44:01;3.33;;;1.80;;
9106;SDS011;4589;48.690;8.952;2023-08-08T07:46:27;1.80;;;1.70;;
9106;SDS011;4589;48.690;8.952;2023-08-08T07:48:53;2.20;;;1.40;;
9106;SDS011;4589;48.690;8.952;2023-08-08T07:51:19;2.17;;;1.97;;
9106;SDS011;4589;48.690;8.952;2023-08-08T07:53:45;2.83;;;1.70;;
9106;SDS011;4589;48.690;8.952;2023-08-08T07:56:10;1.50;;;1.40;;
9106;SDS011;4589;48.690;8.952;2023-08-08T07:58:36;2.17;;;1.67;;
9106;SDS011;4589;48.690;8.952;2023-08-08T08:01:02;4.10;;;1.73;;
9106;SDS011;4589;48.690;8.952;2023-08-08T08:03:28;5.53;;;1.73;;
9106;SDS011;4589;48.690;8.952;2023-08-08T08:05:54;4.13;;;1.80;;
9106;SDS011;4589;48.690;8.952;2023-08-08T08:08:19;2.30;;;1.40;;
9106;SDS011;4589;48.690;8.952;2023-08-08T08:10:46;3.60;;;1.80;;
9106;SDS011;4589;48.690;8.952;2023-08-08T08:13:13;1.67;;;1.57;;
9106;SDS011;4589;48.690;8.952;2023-08-08T08:15:39;2.20;;;1.70;;
9106;SDS011;4589;48.690;8.952;2023-08-08T08:18:05;2.07;;;1.70;;
9106;SDS011;4589;48.690;8.952;2023-08-08T08:20:31;2.47;;;1.70;;
9106;SDS011;4589;48.690;8.952;2023-08-08T08:22:57;2.20;;;1.50;;
9106;SDS011;4589;48.690;8.952;2023-08-08T08:25:22;2.60;;;2.30;;
9106;SDS011;4589;48.690;8.952;2023-08-08T08:27:48;1.47;;;1.33;;
9106;SDS011;4589;48.690;8.952;2023-08-08T08:30:13;2.30;;;2.10;;
9106;SDS011;4589;48.690;8.952;2023-08-08T08:32:41;1.80;;;1.40;;
9106;SDS011;4589;48.690;8.952;2023-08-08T08:35:07;2.13;;;1.57;;
9106;SDS011;4589;48.690;8.952;2023-08-08T08:37:33;1.90;;;1.50;;
9106;SDS011;4589;48.690;8.952;2023-08-08T08:39:59;2.83;;;2.00;;
9106;SDS011;4589;48.690;8.952;2023-08-08T08:42:28;2.20;;;1.50;;
9106;SDS011;4589;48.690;8.952;2023-08-08T08:44:57;2.77;;;1.77;;
9106;SDS011;4589;48.690;8.952;2023-08-08T08:47:23;2.47;;;1.70;;
9106;SDS011;4589;48.690;8.952;2023-08-08T08:49:51;3.00;;;1.67;;
9106;SDS011;4589;48.690;8.952;2023-08-08T08:52:17;2.40;;;1.77;;
9106;SDS011;4589;48.690;8.952;2023-08-08T08:54:43;1.83;;;1.50;;
9106;SDS011;4589;48.690;8.952;2023-08-08T08:57:09;1.60;;;1.40;;
9106;SDS011;4589;48.690;8.952;2023-08-08T08:59:35;3.77;;;1.60;;
9106;SDS011;4589;48.690;8.952;2023-08-08T09:02:01;2.60;;;1.83;;
9106;SDS011;4589;48.690;8.952;2023-08-08T09:04:27;1.70;;;1.60;;
9106;SDS011;4589;48.690;8.952;2023-08-08T09:06:53;1.83;;;1.50;;
9106;SDS011;4589;48.690;8.952;2023-08-08T09:09:19;1.70;;;1.57;;
9106;SDS011;4589;48.690;8.952;2023-08-08T09:11:48;2.10;;;1.70;;
9106;SDS011;4589;48.690;8.952;2023-08-08T09:14:18;1.57;;;1.37;;
9106;SDS011;4589;48.690;8.952;2023-08-08T09:16:45;2.13;;;1.67;;
9106;SDS011;4589;48.690;8.952;2023-08-08T09:19:12;2.00;;;1.57;;
9106;SDS011;4589;48.690;8.952;2023-08-08T09:21:38;2.43;;;1.60;;
9106;SDS011;4589;48.690;8.952;2023-08-08T09:24:04;1.80;;;1.60;;
9106;SDS011;4589;48.690;8.952;2023-08-08T09:26:29;2.00;;;1.63;;
9106;SDS011;4589;48.690;8.952;2023-08-08T09:28:55;2.40;;;1.40;;
9106;SDS011;4589;48.690;8.952;2023-08-08T09:31:23;3.33;;;1.60;;
9106;SDS011;4589;48.690;8.952;2023-08-08T09:33:50;2.77;;;1.70;;
9106;SDS011;4589;48.690;8.952;2023-08-08T09:36:16;2.00;;;1.27;;
9106;SDS011;4589;48.690;8.952;2023-08-08T09:38:44;4.37;;;1.80;;
9106;SDS011;4589;48.690;8.952;2023-08-08T09:41:10;4.03;;;1.60;;
9106;SDS011;4589;48.690;8.952;2023-08-08T09:43:36;4.07;;;1.70;;
9106;SDS011;4589;48.690;8.952;2023-08-08T09:46:02;2.73;;;1.90;;
9106;SDS011;4589;48.690;8.952;2023-08-08T09:48:29;1.77;;;1.60;;
9106;SDS011;4589;48.690;8.952;2023-08-08T09:50:57;2.07;;;1.53;;
9106;SDS011;4589;48.690;8.952;2023-08-08T09:53:24;2.20;;;1.50;;
9106;SDS011;4589;48.690;8.952;2023-08-08T09:55:52;4.00;;;2.50;;
9106;SDS011;4589;48.690;8.952;2023-08-08T09:58:19;1.77;;;1.67;;
9106;SDS011;4589;48.690;8.952;2023-08-08T10:00:45;2.23;;;1.30;;
9106;SDS011;4589;48.690;8.952;2023-08-08T10:03:11;2.30;;;1.70;;
9106;SDS011;4589;48.690;8.952;2023-08-08T10:05:37;3.60;;;1.30;;
9106;SDS011;4589;48.690;8.952;2023-08-08T10:08:03;1.57;;;1.47;;
9106;SDS011;4589;48.690;8.952;2023-08-08T10:10:29;2.30;;;1.73;;
9106;SDS011;4589;48.690;8.952;2023-08-08T10:12:55;2.43;;;1.50;;
9106;SDS011;4589;48.690;8.952;2023-08-08T10:15:25;1.60;;;1.40;;
9106;SDS011;4589;48.690;8.952;2023-08-08T10:17:53;2.37;;;2.07;;
9106;SDS011;4589;48.690;8.952;2023-08-08T10:20:23;2.63;;;1.53;;
9106;SDS011;4589;48.690;8.952;2023-08-08T10:22:49;2.37;;;1.50;;
9106;SDS011;4589;48.690;8.952;2023-08-08T10:25:22;3.30;;;1.43;;
9106;SDS011;4589;48.690;8.952;2023-08-08T10:28:01;1.67;;;1.50;;
9106;SDS011;4589;48.690;8.952;2023-08-08T10:30:41;2.03;;;1.60;;
9106;SDS011;4589;48.690;8.952;2023-08-08T10:33:44;2.60;;;1.53;;
9106;SDS011;4589;48.690;8.952;2023-08-08T10:36:07;2.50;;;1.20;;
9106;SDS011;4589;48.690;8.952;2023-08-08T10:38:40;1.63;;;1.40;;
9106;SDS011;4589;48.690;8.952;2023-08-08T10:41:17;1.90;;;1.40;;
9106;SDS011;4589;48.690;8.952;2023-08-08T10:43:52;5.67;;;2.17;;
9106;SDS011;4589;48.690;8.952;2023-08-08T10:48:53;2.07;;;1.60;;
9106;SDS011;4589;48.690;8.952;2023-08-08T10:51:21;1.70;;;1.30;;
9106;SDS011;4589;48.690;8.952;2023-08-08T10:53:50;3.80;;;1.40;;
9106;SDS011;4589;48.690;8.952;2023-08-08T10:56:17;2.00;;;1.43;;
9106;SDS011;4589;48.690;8.952;2023-08-08T10:58:47;2.17;;;1.33;;
9106;SDS011;4589;48.690;8.952;2023-08-08T11:01:13;2.10;;;1.50;;
9106;SDS011;4589;48.690;8.952;2023-08-08T11:03:41;2.60;;;1.50;;
9106;SDS011;4589;48.690;8.952;2023-08-08T11:06:08;2.50;;;1.57;;
9106;SDS011;4589;48.690;8.952;2023-08-08T11:08:35;2.80;;;1.60;;
9106;SDS011;4589;48.690;8.952;2023-08-08T11:11:03;2.53;;;1.50;;
9106;SDS011;4589;48.690;8.952;2023-08-08T11:13:30;1.93;;;1.40;;
9106;SDS011;4589;48.690;8.952;2023-08-08T11:15:56;1.80;;;1.43;;
9106;SDS011;4589;48.690;8.952;2023-08-08T11:18:22;1.50;;;1.40;;
9106;SDS011;4589;48.690;8.952;2023-08-08T11:20:48;1.37;;;1.27;;
9106;SDS011;4589;48.690;8.952;2023-08-08T11:23:14;2.17;;;1.70;;
9106;SDS011;4589;48.690;8.952;2023-08-08T11:25:41;2.47;;;1.70;;
9106;SDS011;4589;48.690;8.952;2023-08-08T11:28:08;1.83;;;1.40;;
9106;SDS011;4589;48.690;8.952;2023-08-08T11:30:34;3.60;;;1.77;;
9106;SDS011;4589;48.690;8.952;2023-08-08T11:33:01;2.17;;;1.67;;
9106;SDS011;4589;48.690;8.952;2023-08-08T11:35:27;1.50;;;1.30;;
9106;SDS011;4589;48.690;8.952;2023-08-08T11:37:53;1.60;;;1.40;;
9106;SDS011;4589;48.690;8.952;2023-08-08T11:40:20;2.53;;;1.37;;
9106;SDS011;4589;48.690;8.952;2023-08-08T11:42:48;1.83;;;1.60;;
9106;SDS011;4589;48.690;8.952;2023-08-08T11:45:15;1.80;;;1.50;;
9106;SDS011;4589;48.690;8.952;2023-08-08T11:47:41;2.23;;;1.67;;
9106;SDS011;4589;48.690;8.952;2023-08-08T11:50:08;3.77;;;1.57;;
9106;SDS011;4589;48.690;8.952;2023-08-08T11:52:36;1.60;;;1.30;;
9106;SDS011;4589;48.690;8.952;2023-08-08T11:55:05;1.80;;;1.50;;
9106;SDS011;4589;48.690;8.952;2023-08-08T11:57:33;2.30;;;1.40;;
9106;SDS011;4589;48.690;8.952;2023-08-08T12:00:00;1.50;;;1.37;;
9106;SDS011;4589;48.690;8.952;2023-08-08T12:02:29;2.03;;;1.67;;
9106;SDS011;4589;48.690;8.952;2023-08-08T12:04:55;2.53;;;1.37;;
9106;SDS011;4589;48.690;8.952;2023-08-08T12:07:22;2.33;;;1.87;;
9106;SDS011;4589;48.690;8.952;2023-08-08T12:09:48;1.70;;;1.60;;
9106;SDS011;4589;48.690;8.952;2023-08-08T12:12:14;1.70;;;1.50;;
9106;SDS011;4589;48.690;8.952;2023-08-08T12:14:41;1.80;;;1.53;;
9106;SDS011;4589;48.690;8.952;2023-08-08T12:17:09;1.60;;;1.50;;
9106;SDS011;4589;48.690;8.952;2023-08-08T12:19:35;2.20;;;1.63;;
9106;SDS011;4589;48.690;8.952;2023-08-08T12:22:01;4.33;;;1.67;;
9106;SDS011;4589;48.690;8.952;2023-08-08T12:24:26;1.60;;;1.50;;
9106;SDS011;4589;48.690;8.952;2023-08-08T12:26:52;2.00;;;1.43;;
9106;SDS011;4589;48.690;8.952;2023-08-08T12:29:18;1.77;;;1.50;;
9106;SDS011;4589;48.690;8.952;2023-08-08T12:31:43;2.00;;;1.60;;
9106;SDS011;4589;48.690;8.952;2023-08-08T12:34:09;1.80;;;1.43;;
9106;SDS011;4589;48.690;8.952;2023-08-08T12:36:35;3.23;;;1.70;;
9106;SDS011;4589;48.690;8.952;2023-08-08T12:39:02;2.40;;;1.30;;
9106;SDS011;4589;48.690;8.952;2023-08-08T12:41:27;1.93;;;1.73;;
9106;SDS011;4589;48.690;8.952;2023-08-08T12:43:54;1.67;;;1.57;;
9106;SDS011;4589;48.690;8.952;2023-08-08T12:46:20;1.70;;;1.60;;
9106;SDS011;4589;48.690;8.952;2023-08-08T12:48:46;4.03;;;1.67;;
9106;SDS011;4589;48.690;8.952;2023-08-08T12:51:12;5.43;;;1.60;;
9106;SDS011;4589;48.690;8.952;2023-08-08T12:53:41;3.03;;;1.70;;
9106;SDS011;4589;48.690;8.952;2023-08-08T12:56:06;2.37;;;1.73;;
9106;SDS011;4589;48.690;8.952;2023-08-08T12:58:33;2.47;;;1.60;;
9106;SDS011;4589;48.690;8.952;2023-08-08T13:00:58;2.80;;;1.80;;
9106;SDS011;4589;48.690;8.952;2023-08-08T13:03:24;2.57;;;1.60;;
9106;SDS011;4589;48.690;8.952;2023-08-08T13:05:50;6.67;;;1.70;;
9106;SDS011;4589;48.690;8.952;2023-08-08T13:08:17;2.50;;;2.13;;
9106;SDS011;4589;48.690;8.952;2023-08-08T13:10:43;4.23;;;1.63;;
9106;SDS011;4589;48.690;8.952;2023-08-08T13:13:10;2.20;;;1.87;;
9106;SDS011;4589;48.690;8.952;2023-08-08T13:15:36;5.20;;;1.80;;
9106;SDS011;4589;48.690;8.952;2023-08-08T13:18:02;3.53;;;1.63;;
9106;SDS011;4589;48.690;8.952;2023-08-08T13:20:28;3.07;;;1.97;;
9106;SDS011;4589;48.690;8.952;2023-08-08T13:22:54;1.73;;;1.63;;
9106;SDS011;4589;48.690;8.952;2023-08-08T13:25:20;3.77;;;1.70;;
9106;SDS011;4589;48.690;8.952;2023-08-08T13:27:46;3.63;;;2.33;;
9106;SDS011;4589;48.690;8.952;2023-08-08T13:30:12;2.97;;;1.70;;
9106;SDS011;4589;48.690;8.952;2023-08-08T13:32:40;2.37;;;1.73;;
9106;SDS011;4589;48.690;8.952;2023-08-08T13:35:06;3.70;;;1.60;;
9106;SDS011;4589;48.690;8.952;2023-08-08T13:37:32;2.40;;;1.63;;
9106;SDS011;4589;48.690;8.952;2023-08-08T13:39:58;2.07;;;1.50;;
9106;SDS011;4589;48.690;8.952;2023-08-08T13:42:27;2.17;;;1.97;;
9106;SDS011;4589;48.690;8.952;2023-08-08T13:44:53;2.23;;;2.00;;
9106;SDS011;4589;48.690;8.952;2023-08-08T13:47:19;2.50;;;1.83;;
9106;SDS011;4589;48.690;8.952;2023-08-08T13:49:45;3.00;;;1.80;;
9106;SDS011;4589;48.690;8.952;2023-08-08T13:52:12;3.13;;;2.07;;
9106;SDS011;4589;48.690;8.952;2023-08-08T13:54:38;1.77;;;1.57;;
9106;SDS011;4589;48.690;8.952;2023-08-08T13:57:04;1.83;;;1.73;;
9106;SDS011;4589;48.690;8.952;2023-08-08T13:59:30;1.60;;;1.30;;
9106;SDS011;4589;48.690;8.952;2023-08-08T14:01:58;1.70;;;1.53;;
9106;SDS011;4589;48.690;8.952;2023-08-08T14:04:24;1.70;;;1.60;;
9106;SDS011;4589;48.690;8.952;2023-08-08T14:06:50;2.37;;;1.60;;
9106;SDS011;4589;48.690;8.952;2023-08-08T14:09:16;2.60;;;1.63;;
9106;SDS011;4589;48.690;8.952;2023-08-08T14:11:42;1.93;;;1.60;;
9106;SDS011;4589;48.690;8.952;2023-08-08T14:14:08;3.20;;;2.07;;
9106;SDS011;4589;48.690;8.952;2023-08-08T14:16:34;3.87;;;1.63;;
9106;SDS011;4589;48.690;8.952;2023-08-08T14:18:59;2.30;;;1.40;;
9106;SDS011;4589;48.690;8.952;2023-08-08T14:21:25;4.47;;;1.70;;
9106;SDS011;4589;48.690;8.952;2023-08-08T14:23:51;1.93;;;1.70;;
9106;SDS011;4589;48.690;8.952;2023-08-08T14:26:17;4.07;;;1.83;;
9106;SDS011;4589;48.690;8.952;2023-08-08T14:28:43;2.40;;;1.80;;
9106;SDS011;4589;48.690;8.952;2023-08-08T14:31:09;1.87;;;1.70;;
9106;SDS011;4589;48.690;8.952;2023-08-08T14:33:34;2.07;;;1.87;;
9106;SDS011;4589;48.690;8.952;2023-08-08T14:36:00;1.90;;;1.57;;
9106;SDS011;4589;48.690;8.952;2023-08-08T14:38:26;3.50;;;1.80;;
9106;SDS011;4589;48.690;8.952;2023-08-08T14:40:52;3.00;;;1.80;;
9106;SDS011;4589;48.690;8.952;2023-08-08T14:43:18;2.30;;;1.80;;
9106;SDS011;4589;48.690;8.952;2023-08-08T14:45:44;2.20;;;1.70;;
9106;SDS011;4589;48.690;8.952;2023-08-08T14:48:10;1.70;;;1.60;;
9106;SDS011;4589;48.690;8.952;2023-08-08T14:50:36;2.60;;;1.80;;
9106;SDS011;4589;48.690;8.952;2023-08-08T14:53:02;2.43;;;1.50;;
9106;SDS011;4589;48.690;8.952;2023-08-08T14:55:28;1.93;;;1.50;;
9106;SDS011;4589;48.690;8.952;2023-08-08T14:57:54;2.17;;;1.67;;
9106;SDS011;4589;48.690;8.952;2023-08-08T15:00:20;2.20;;;1.60;;
9106;SDS011;4589;48.690;8.952;2023-08-08T15:02:47;3.70;;;1.80;;
9106;SDS011;4589;48.690;8.952;2023-08-08T15:05:13;2.00;;;1.47;;
9106;SDS011;4589;48.690;8.952;2023-08-08T15:07:39;2.70;;;1.67;;
9106;SDS011;4589;48.690;8.952;2023-08-08T15:10:05;1.90;;;1.80;;
9106;SDS011;4589;48.690;8.952;2023-08-08T15:12:31;1.90;;;1.70;;